sensor_id;sensor_type;location;lat;lon;timestamp;temperature;humidity
68257;DHT22;55069;51.568;4.656;2022-07-23T00:01:54;16.28;81.58
68257;DHT22;55069;51.568;4.656;2022-07-23T00:04:20;16.24;81.91
68257;DHT22;55069;51.568;4.656;2022-07-23T00:06:45;16.22;82.30
68257;DHT22;55069;51.568;4.656;2022-07-23T00:09:11;16.15;82.15
68257;DHT22;55069;51.568;4.656;2022-07-23T00:11:36;16.14;82.28
68257;DHT22;55069;51.568;4.656;2022-07-23T00:14:02;16.05;82.65
68257;DHT22;55069;51.568;4.656;2022-07-23T00:16:27;16.08;82.43
68257;DHT22;55069;51.568;4.656;2022-07-23T00:18:53;16.03;82.58
68257;DHT22;55069;51.568;4.656;2022-07-23T00:21:18;15.98;82.68
68257;DHT22;55069;51.568;4.656;2022-07-23T00:23:44;15.94;82.68
68257;DHT22;55069;51.568;4.656;2022-07-23T00:26:09;15.89;83.39
68257;DHT22;55069;51.568;4.656;2022-07-23T00:28:35;15.90;83.22
68257;DHT22;55069;51.568;4.656;2022-07-23T00:31:00;15.97;83.09
68257;DHT22;55069;51.568;4.656;2022-07-23T00:33:26;16.01;82.88
68257;DHT22;55069;51.568;4.656;2022-07-23T00:35:51;16.00;82.50
68257;DHT22;55069;51.568;4.656;2022-07-23T00:38:17;16.03;82.72
68257;DHT22;55069;51.568;4.656;2022-07-23T00:40:42;16.03;82.72
68257;DHT22;55069;51.568;4.656;2022-07-23T00:43:08;16.05;82.14
68257;DHT22;55069;51.568;4.656;2022-07-23T00:45:34;16.08;81.85
68257;DHT22;55069;51.568;4.656;2022-07-23T00:48:00;16.05;82.42
68257;DHT22;55069;51.568;4.656;2022-07-23T00:50:26;16.01;82.64
68257;DHT22;55069;51.568;4.656;2022-07-23T00:52:52;15.93;82.69
68257;DHT22;55069;51.568;4.656;2022-07-23T00:55:17;15.93;81.76
68257;DHT22;55069;51.568;4.656;2022-07-23T00:57:43;15.98;81.43
68257;DHT22;55069;51.568;4.656;2022-07-23T01:00:11;16.04;81.86
68257;DHT22;55069;51.568;4.656;2022-07-23T01:02:38;16.04;81.97
68257;DHT22;55069;51.568;4.656;2022-07-23T01:05:04;16.01;82.45
68257;DHT22;55069;51.568;4.656;2022-07-23T01:07:30;15.97;81.55
68257;DHT22;55069;51.568;4.656;2022-07-23T01:09:56;15.89;82.06
68257;DHT22;55069;51.568;4.656;2022-07-23T01:12:22;15.77;83.83
68257;DHT22;55069;51.568;4.656;2022-07-23T01:14:58;15.65;84.08
68257;DHT22;55069;51.568;4.656;2022-07-23T01:17:26;15.57;82.72
68257;DHT22;55069;51.568;4.656;2022-07-23T01:19:52;15.56;81.86
68257;DHT22;55069;51.568;4.656;2022-07-23T01:22:19;15.59;81.96
68257;DHT22;55069;51.568;4.656;2022-07-23T01:24:46;15.60;81.47
68257;DHT22;55069;51.568;4.656;2022-07-23T01:27:12;15.55;83.59
68257;DHT22;55069;51.568;4.656;2022-07-23T01:29:38;15.49;82.59
68257;DHT22;55069;51.568;4.656;2022-07-23T01:32:09;15.49;81.53
68257;DHT22;55069;51.568;4.656;2022-07-23T01:34:35;15.53;81.53
68257;DHT22;55069;51.568;4.656;2022-07-23T01:37:01;15.55;81.40
68257;DHT22;55069;51.568;4.656;2022-07-23T01:39:27;15.56;81.02
68257;DHT22;55069;51.568;4.656;2022-07-23T01:41:52;15.55;81.12
68257;DHT22;55069;51.568;4.656;2022-07-23T01:44:19;15.63;80.74
68257;DHT22;55069;51.568;4.656;2022-07-23T01:46:45;15.57;81.00
68257;DHT22;55069;51.568;4.656;2022-07-23T01:49:10;15.50;83.94
68257;DHT22;55069;51.568;4.656;2022-07-23T01:51:54;15.49;82.11
68257;DHT22;55069;51.568;4.656;2022-07-23T01:54:32;15.50;81.83
68257;DHT22;55069;51.568;4.656;2022-07-23T01:56:59;15.53;81.82
68257;DHT22;55069;51.568;4.656;2022-07-23T01:59:26;15.50;82.43
68257;DHT22;55069;51.568;4.656;2022-07-23T02:01:52;15.48;82.38
68257;DHT22;55069;51.568;4.656;2022-07-23T02:04:18;15.43;83.68
68257;DHT22;55069;51.568;4.656;2022-07-23T02:06:46;15.36;84.66
68257;DHT22;55069;51.568;4.656;2022-07-23T02:09:12;15.29;85.08
68257;DHT22;55069;51.568;4.656;2022-07-23T02:11:37;15.25;84.27
68257;DHT22;55069;51.568;4.656;2022-07-23T02:14:03;15.19;84.95
68257;DHT22;55069;51.568;4.656;2022-07-23T02:16:28;15.17;85.16
68257;DHT22;55069;51.568;4.656;2022-07-23T02:18:59;15.11;85.57
68257;DHT22;55069;51.568;4.656;2022-07-23T02:21:24;15.08;85.70
68257;DHT22;55069;51.568;4.656;2022-07-23T02:23:52;15.05;85.09
68257;DHT22;55069;51.568;4.656;2022-07-23T02:26:18;15.01;84.99
68257;DHT22;55069;51.568;4.656;2022-07-23T02:28:44;15.02;84.34
68257;DHT22;55069;51.568;4.656;2022-07-23T02:31:11;15.01;86.06
68257;DHT22;55069;51.568;4.656;2022-07-23T02:33:36;14.98;85.41
68257;DHT22;55069;51.568;4.656;2022-07-23T02:36:02;14.94;84.04
68257;DHT22;55069;51.568;4.656;2022-07-23T02:38:28;14.97;85.82
68257;DHT22;55069;51.568;4.656;2022-07-23T02:40:53;14.94;86.00
68257;DHT22;55069;51.568;4.656;2022-07-23T02:43:19;14.90;86.46
68257;DHT22;55069;51.568;4.656;2022-07-23T02:45:45;14.83;86.83
68257;DHT22;55069;51.568;4.656;2022-07-23T02:48:10;14.85;86.83
68257;DHT22;55069;51.568;4.656;2022-07-23T02:50:38;14.83;85.53
68257;DHT22;55069;51.568;4.656;2022-07-23T02:53:04;14.85;85.43
68257;DHT22;55069;51.568;4.656;2022-07-23T02:55:30;14.88;86.35
68257;DHT22;55069;51.568;4.656;2022-07-23T02:58:00;14.90;84.92
68257;DHT22;55069;51.568;4.656;2022-07-23T03:00:26;14.92;85.42
68257;DHT22;55069;51.568;4.656;2022-07-23T03:02:52;14.97;84.33
68257;DHT22;55069;51.568;4.656;2022-07-23T03:05:17;14.98;83.59
68257;DHT22;55069;51.568;4.656;2022-07-23T03:07:43;15.08;83.33
68257;DHT22;55069;51.568;4.656;2022-07-23T03:10:09;15.09;82.91
68257;DHT22;55069;51.568;4.656;2022-07-23T03:12:34;15.12;83.90
68257;DHT22;55069;51.568;4.656;2022-07-23T03:15:00;15.09;84.79
68257;DHT22;55069;51.568;4.656;2022-07-23T03:17:26;15.04;84.62
68257;DHT22;55069;51.568;4.656;2022-07-23T03:19:52;14.94;84.41
68257;DHT22;55069;51.568;4.656;2022-07-23T03:22:17;14.92;84.91
68257;DHT22;55069;51.568;4.656;2022-07-23T03:24:43;14.85;84.46
68257;DHT22;55069;51.568;4.656;2022-07-23T03:27:33;14.83;83.34
68257;DHT22;55069;51.568;4.656;2022-07-23T03:29:59;14.81;83.18
68257;DHT22;55069;51.568;4.656;2022-07-23T03:32:25;14.76;83.35
68257;DHT22;55069;51.568;4.656;2022-07-23T03:34:52;14.76;83.48
68257;DHT22;55069;51.568;4.656;2022-07-23T03:37:18;14.67;83.37
68257;DHT22;55069;51.568;4.656;2022-07-23T03:39:45;14.66;83.36
68257;DHT22;55069;51.568;4.656;2022-07-23T03:42:11;14.69;82.96
68257;DHT22;55069;51.568;4.656;2022-07-23T03:44:37;14.61;84.18
68257;DHT22;55069;51.568;4.656;2022-07-23T03:47:04;14.60;84.89
68257;DHT22;55069;51.568;4.656;2022-07-23T03:49:30;14.60;84.76
68257;DHT22;55069;51.568;4.656;2022-07-23T03:51:56;14.53;86.15
68257;DHT22;55069;51.568;4.656;2022-07-23T03:54:21;14.56;86.38
68257;DHT22;55069;51.568;4.656;2022-07-23T03:56:47;14.52;86.98
68257;DHT22;55069;51.568;4.656;2022-07-23T03:59:13;14.47;86.87
68257;DHT22;55069;51.568;4.656;2022-07-23T04:01:38;14.44;87.37
68257;DHT22;55069;51.568;4.656;2022-07-23T04:04:04;14.42;87.18
68257;DHT22;55069;51.568;4.656;2022-07-23T04:06:30;14.47;86.83
68257;DHT22;55069;51.568;4.656;2022-07-23T04:08:57;14.43;86.93
68257;DHT22;55069;51.568;4.656;2022-07-23T04:11:23;14.42;85.84
68257;DHT22;55069;51.568;4.656;2022-07-23T04:13:48;14.46;87.17
68257;DHT22;55069;51.568;4.656;2022-07-23T04:16:14;14.43;87.16
68257;DHT22;55069;51.568;4.656;2022-07-23T04:18:39;14.39;85.81
68257;DHT22;55069;51.568;4.656;2022-07-23T04:21:11;14.46;85.34
68257;DHT22;55069;51.568;4.656;2022-07-23T04:23:37;14.44;84.62
68257;DHT22;55069;51.568;4.656;2022-07-23T04:26:05;14.49;84.51
68257;DHT22;55069;51.568;4.656;2022-07-23T04:28:31;14.50;84.27
68257;DHT22;55069;51.568;4.656;2022-07-23T04:30:57;14.55;84.07
68257;DHT22;55069;51.568;4.656;2022-07-23T04:33:23;14.56;84.79
68257;DHT22;55069;51.568;4.656;2022-07-23T04:35:50;14.53;85.74
68257;DHT22;55069;51.568;4.656;2022-07-23T04:38:19;14.55;85.66
68257;DHT22;55069;51.568;4.656;2022-07-23T04:40:46;14.60;84.53
68257;DHT22;55069;51.568;4.656;2022-07-23T04:43:12;14.59;84.70
68257;DHT22;55069;51.568;4.656;2022-07-23T04:45:45;14.63;85.38
68257;DHT22;55069;51.568;4.656;2022-07-23T04:48:11;14.64;85.56
68257;DHT22;55069;51.568;4.656;2022-07-23T04:50:37;14.64;85.61
68257;DHT22;55069;51.568;4.656;2022-07-23T04:53:04;14.66;85.86
68257;DHT22;55069;51.568;4.656;2022-07-23T04:55:30;14.70;84.97
68257;DHT22;55069;51.568;4.656;2022-07-23T04:57:55;14.80;83.90
68257;DHT22;55069;51.568;4.656;2022-07-23T05:00:21;14.88;83.49
68257;DHT22;55069;51.568;4.656;2022-07-23T05:02:47;14.95;84.71
68257;DHT22;55069;51.568;4.656;2022-07-23T05:05:12;15.07;83.48
68257;DHT22;55069;51.568;4.656;2022-07-23T05:07:40;15.18;84.54
68257;DHT22;55069;51.568;4.656;2022-07-23T05:10:06;15.28;83.81
68257;DHT22;55069;51.568;4.656;2022-07-23T05:12:31;15.28;83.11
68257;DHT22;55069;51.568;4.656;2022-07-23T05:14:58;15.35;82.57
68257;DHT22;55069;51.568;4.656;2022-07-23T05:17:24;15.39;83.46
68257;DHT22;55069;51.568;4.656;2022-07-23T05:19:50;15.48;84.12
68257;DHT22;55069;51.568;4.656;2022-07-23T05:22:16;15.53;83.54
68257;DHT22;55069;51.568;4.656;2022-07-23T05:24:42;15.55;84.11
68257;DHT22;55069;51.568;4.656;2022-07-23T05:27:08;15.59;83.67
68257;DHT22;55069;51.568;4.656;2022-07-23T05:29:34;15.62;83.35
68257;DHT22;55069;51.568;4.656;2022-07-23T05:32:00;15.62;84.31
68257;DHT22;55069;51.568;4.656;2022-07-23T05:34:27;15.67;83.40
68257;DHT22;55069;51.568;4.656;2022-07-23T05:36:52;15.65;84.03
68257;DHT22;55069;51.568;4.656;2022-07-23T05:39:19;15.67;83.54
68257;DHT22;55069;51.568;4.656;2022-07-23T05:41:45;15.62;84.13
68257;DHT22;55069;51.568;4.656;2022-07-23T05:44:10;15.63;84.08
68257;DHT22;55069;51.568;4.656;2022-07-23T05:46:38;15.71;83.82
68257;DHT22;55069;51.568;4.656;2022-07-23T05:49:07;15.71;83.31
68257;DHT22;55069;51.568;4.656;2022-07-23T05:51:51;15.76;84.02
68257;DHT22;55069;51.568;4.656;2022-07-23T05:54:25;15.86;84.19
68257;DHT22;55069;51.568;4.656;2022-07-23T05:56:51;15.87;83.97
68257;DHT22;55069;51.568;4.656;2022-07-23T05:59:17;15.86;83.75
68257;DHT22;55069;51.568;4.656;2022-07-23T06:01:43;15.90;83.89
68257;DHT22;55069;51.568;4.656;2022-07-23T06:04:10;15.91;84.19
68257;DHT22;55069;51.568;4.656;2022-07-23T06:06:38;16.00;83.56
68257;DHT22;55069;51.568;4.656;2022-07-23T06:09:06;16.03;83.24
68257;DHT22;55069;51.568;4.656;2022-07-23T06:11:31;16.08;83.77
68257;DHT22;55069;51.568;4.656;2022-07-23T06:13:57;16.14;83.64
68257;DHT22;55069;51.568;4.656;2022-07-23T06:16:33;16.17;83.34
68257;DHT22;55069;51.568;4.656;2022-07-23T06:18:58;16.20;83.04
68257;DHT22;55069;51.568;4.656;2022-07-23T06:21:26;16.29;83.24
68257;DHT22;55069;51.568;4.656;2022-07-23T06:23:52;16.38;82.43
68257;DHT22;55069;51.568;4.656;2022-07-23T06:26:17;16.56;82.59
68257;DHT22;55069;51.568;4.656;2022-07-23T06:28:43;16.53;82.08
68257;DHT22;55069;51.568;4.656;2022-07-23T06:31:09;16.61;82.02
68257;DHT22;55069;51.568;4.656;2022-07-23T06:33:36;16.65;82.24
68257;DHT22;55069;51.568;4.656;2022-07-23T06:36:02;16.70;81.34
68257;DHT22;55069;51.568;4.656;2022-07-23T06:38:28;16.82;82.25
68257;DHT22;55069;51.568;4.656;2022-07-23T06:40:55;16.84;82.05
68257;DHT22;55069;51.568;4.656;2022-07-23T06:43:21;16.91;81.52
68257;DHT22;55069;51.568;4.656;2022-07-23T06:45:46;17.03;80.26
68257;DHT22;55069;51.568;4.656;2022-07-23T06:48:12;17.07;81.23
68257;DHT22;55069;51.568;4.656;2022-07-23T06:50:37;17.18;80.75
68257;DHT22;55069;51.568;4.656;2022-07-23T06:53:03;17.23;78.90
68257;DHT22;55069;51.568;4.656;2022-07-23T06:55:28;17.27;78.46
68257;DHT22;55069;51.568;4.656;2022-07-23T06:57:54;17.37;79.22
68257;DHT22;55069;51.568;4.656;2022-07-23T07:00:19;17.35;79.26
68257;DHT22;55069;51.568;4.656;2022-07-23T07:02:46;17.48;78.31
68257;DHT22;55069;51.568;4.656;2022-07-23T07:05:11;17.61;77.18
68257;DHT22;55069;51.568;4.656;2022-07-23T07:07:37;17.58;77.38
68257;DHT22;55069;51.568;4.656;2022-07-23T07:10:03;17.68;77.55
68257;DHT22;55069;51.568;4.656;2022-07-23T07:12:29;17.75;78.23
68257;DHT22;55069;51.568;4.656;2022-07-23T07:14:54;17.82;76.35
68257;DHT22;55069;51.568;4.656;2022-07-23T07:17:20;17.87;75.78
68257;DHT22;55069;51.568;4.656;2022-07-23T07:19:45;17.89;75.94
68257;DHT22;55069;51.568;4.656;2022-07-23T07:22:11;17.96;75.00
68257;DHT22;55069;51.568;4.656;2022-07-23T07:24:36;18.07;75.83
68257;DHT22;55069;51.568;4.656;2022-07-23T07:27:02;18.16;75.82
68257;DHT22;55069;51.568;4.656;2022-07-23T07:29:27;18.33;74.39
68257;DHT22;55069;51.568;4.656;2022-07-23T07:31:53;18.34;72.78
68257;DHT22;55069;51.568;4.656;2022-07-23T07:34:19;18.43;73.73
68257;DHT22;55069;51.568;4.656;2022-07-23T07:36:44;18.45;72.51
68257;DHT22;55069;51.568;4.656;2022-07-23T07:39:10;18.57;72.20
68257;DHT22;55069;51.568;4.656;2022-07-23T07:41:35;18.65;72.52
68257;DHT22;55069;51.568;4.656;2022-07-23T07:44:01;18.73;72.36
68257;DHT22;55069;51.568;4.656;2022-07-23T07:46:27;18.78;71.09
68257;DHT22;55069;51.568;4.656;2022-07-23T07:48:53;18.85;71.49
68257;DHT22;55069;51.568;4.656;2022-07-23T07:51:18;18.96;72.34
68257;DHT22;55069;51.568;4.656;2022-07-23T07:53:44;19.00;70.14
68257;DHT22;55069;51.568;4.656;2022-07-23T07:56:09;19.15;71.18
68257;DHT22;55069;51.568;4.656;2022-07-23T07:58:35;19.31;71.36
68257;DHT22;55069;51.568;4.656;2022-07-23T08:01:00;19.39;71.05
68257;DHT22;55069;51.568;4.656;2022-07-23T08:03:27;19.41;69.33
68257;DHT22;55069;51.568;4.656;2022-07-23T08:05:53;19.54;68.84
68257;DHT22;55069;51.568;4.656;2022-07-23T08:08:18;19.67;68.82
68257;DHT22;55069;51.568;4.656;2022-07-23T08:10:44;19.51;67.52
68257;DHT22;55069;51.568;4.656;2022-07-23T08:13:13;19.68;67.90
68257;DHT22;55069;51.568;4.656;2022-07-23T08:15:40;19.74;68.16
68257;DHT22;55069;51.568;4.656;2022-07-23T08:18:06;19.89;67.98
68257;DHT22;55069;51.568;4.656;2022-07-23T08:20:31;19.84;66.15
68257;DHT22;55069;51.568;4.656;2022-07-23T08:23:04;19.89;65.89
68257;DHT22;55069;51.568;4.656;2022-07-23T08:25:36;19.84;65.33
68257;DHT22;55069;51.568;4.656;2022-07-23T08:28:03;19.99;67.05
68257;DHT22;55069;51.568;4.656;2022-07-23T08:30:30;20.04;64.60
68257;DHT22;55069;51.568;4.656;2022-07-23T08:33:04;20.09;63.71
68257;DHT22;55069;51.568;4.656;2022-07-23T08:35:34;20.04;64.19
68257;DHT22;55069;51.568;4.656;2022-07-23T08:38:07;20.15;64.72
68257;DHT22;55069;51.568;4.656;2022-07-23T08:40:38;20.26;65.53
68257;DHT22;55069;51.568;4.656;2022-07-23T08:43:11;20.44;66.39
68257;DHT22;55069;51.568;4.656;2022-07-23T08:45:42;20.50;64.51
68257;DHT22;55069;51.568;4.656;2022-07-23T08:48:12;20.63;64.95
68257;DHT22;55069;51.568;4.656;2022-07-23T08:50:42;20.73;64.62
68257;DHT22;55069;51.568;4.656;2022-07-23T08:53:09;20.90;66.20
68257;DHT22;55069;51.568;4.656;2022-07-23T08:55:35;20.94;62.40
68257;DHT22;55069;51.568;4.656;2022-07-23T08:58:01;20.98;62.89
68257;DHT22;55069;51.568;4.656;2022-07-23T09:00:27;20.80;62.43
68257;DHT22;55069;51.568;4.656;2022-07-23T09:02:53;20.91;63.06
68257;DHT22;55069;51.568;4.656;2022-07-23T09:05:19;21.11;62.42
68257;DHT22;55069;51.568;4.656;2022-07-23T09:10:29;21.28;61.94
68257;DHT22;55069;51.568;4.656;2022-07-23T09:12:54;21.42;60.48
68257;DHT22;55069;51.568;4.656;2022-07-23T09:15:20;21.60;61.43
68257;DHT22;55069;51.568;4.656;2022-07-23T09:17:45;21.92;61.00
68257;DHT22;55069;51.568;4.656;2022-07-23T09:20:15;22.15;61.04
68257;DHT22;55069;51.568;4.656;2022-07-23T09:22:45;22.40;59.11
68257;DHT22;55069;51.568;4.656;2022-07-23T09:25:14;22.42;57.44
68257;DHT22;55069;51.568;4.656;2022-07-23T09:30:18;22.56;58.01
68257;DHT22;55069;51.568;4.656;2022-07-23T09:32:44;22.73;57.94
68257;DHT22;55069;51.568;4.656;2022-07-23T09:38:09;22.96;56.86
68257;DHT22;55069;51.568;4.656;2022-07-23T09:40:34;23.11;56.99
68257;DHT22;55069;51.568;4.656;2022-07-23T09:43:00;23.37;58.82
68257;DHT22;55069;51.568;4.656;2022-07-23T09:45:25;23.58;58.09
68257;DHT22;55069;51.568;4.656;2022-07-23T09:47:51;23.83;56.68
68257;DHT22;55069;51.568;4.656;2022-07-23T09:50:34;23.55;53.83
68257;DHT22;55069;51.568;4.656;2022-07-23T09:53:00;22.79;55.71
68257;DHT22;55069;51.568;4.656;2022-07-23T09:55:32;23.23;59.13
68257;DHT22;55069;51.568;4.656;2022-07-23T09:58:03;23.31;54.86
68257;DHT22;55069;51.568;4.656;2022-07-23T10:00:30;23.40;56.94
68257;DHT22;55069;51.568;4.656;2022-07-23T10:02:57;23.33;55.67
68257;DHT22;55069;51.568;4.656;2022-07-23T10:05:28;23.23;54.32
68257;DHT22;55069;51.568;4.656;2022-07-23T10:08:33;22.88;55.14
68257;DHT22;55069;51.568;4.656;2022-07-23T10:11:18;23.17;57.34
68257;DHT22;55069;51.568;4.656;2022-07-23T10:13:54;23.26;56.31
68257;DHT22;55069;51.568;4.656;2022-07-23T10:16:48;23.41;55.20
68257;DHT22;55069;51.568;4.656;2022-07-23T10:19:14;23.51;54.05
68257;DHT22;55069;51.568;4.656;2022-07-23T10:21:44;23.59;55.29
68257;DHT22;55069;51.568;4.656;2022-07-23T10:30:00;23.82;53.81
68257;DHT22;55069;51.568;4.656;2022-07-23T10:35:44;24.56;52.65
68257;DHT22;55069;51.568;4.656;2022-07-23T10:41:13;24.41;51.93
68257;DHT22;55069;51.568;4.656;2022-07-23T10:43:38;24.37;52.88
68257;DHT22;55069;51.568;4.656;2022-07-23T10:46:23;24.43;53.88
68257;DHT22;55069;51.568;4.656;2022-07-23T10:49:21;24.40;53.02
68257;DHT22;55069;51.568;4.656;2022-07-23T10:54:41;24.36;53.68
68257;DHT22;55069;51.568;4.656;2022-07-23T10:57:07;24.60;51.87
68257;DHT22;55069;51.568;4.656;2022-07-23T11:02:44;24.85;52.55
68257;DHT22;55069;51.568;4.656;2022-07-23T11:05:16;25.16;52.89
68257;DHT22;55069;51.568;4.656;2022-07-23T11:13:42;26.45;49.30
68257;DHT22;55069;51.568;4.656;2022-07-23T11:16:15;26.64;49.09
68257;DHT22;55069;51.568;4.656;2022-07-23T11:31:56;26.26;49.07
68257;DHT22;55069;51.568;4.656;2022-07-23T11:34:35;26.29;49.86
68257;DHT22;55069;51.568;4.656;2022-07-23T11:37:06;26.88;48.96
68257;DHT22;55069;51.568;4.656;2022-07-23T11:39:33;26.53;49.37
68257;DHT22;55069;51.568;4.656;2022-07-23T11:41:59;26.75;50.21
68257;DHT22;55069;51.568;4.656;2022-07-23T11:44:33;25.50;48.91
68257;DHT22;55069;51.568;4.656;2022-07-23T11:49:26;26.14;51.64
68257;DHT22;55069;51.568;4.656;2022-07-23T11:52:13;26.08;49.75
68257;DHT22;55069;51.568;4.656;2022-07-23T11:55:00;25.66;48.45
68257;DHT22;55069;51.568;4.656;2022-07-23T11:57:28;24.95;50.67
68257;DHT22;55069;51.568;4.656;2022-07-23T12:00:03;24.70;52.18
68257;DHT22;55069;51.568;4.656;2022-07-23T12:02:38;24.54;52.79
68257;DHT22;55069;51.568;4.656;2022-07-23T12:05:04;24.54;52.59
68257;DHT22;55069;51.568;4.656;2022-07-23T12:07:36;24.50;53.08
68257;DHT22;55069;51.568;4.656;2022-07-23T12:10:29;24.46;52.17
68257;DHT22;55069;51.568;4.656;2022-07-23T12:12:57;24.40;51.95
68257;DHT22;55069;51.568;4.656;2022-07-23T12:15:43;24.02;52.91
68257;DHT22;55069;51.568;4.656;2022-07-23T12:18:12;24.02;53.05
68257;DHT22;55069;51.568;4.656;2022-07-23T12:20:43;23.86;53.53
68257;DHT22;55069;51.568;4.656;2022-07-23T12:23:11;23.72;52.31
68257;DHT22;55069;51.568;4.656;2022-07-23T12:25:39;24.01;52.64
68257;DHT22;55069;51.568;4.656;2022-07-23T12:30:33;24.49;52.29
68257;DHT22;55069;51.568;4.656;2022-07-23T12:33:00;24.47;51.32
68257;DHT22;55069;51.568;4.656;2022-07-23T12:35:56;24.82;51.87
68257;DHT22;55069;51.568;4.656;2022-07-23T12:38:23;25.08;51.23
68257;DHT22;55069;51.568;4.656;2022-07-23T12:40:57;25.15;51.46
68257;DHT22;55069;51.568;4.656;2022-07-23T12:48:29;25.19;52.49
68257;DHT22;55069;51.568;4.656;2022-07-23T12:51:00;25.29;50.48
68257;DHT22;55069;51.568;4.656;2022-07-23T12:53:36;25.26;48.53
68257;DHT22;55069;51.568;4.656;2022-07-23T12:56:22;25.14;50.91
68257;DHT22;55069;51.568;4.656;2022-07-23T12:58:52;25.32;51.48
68257;DHT22;55069;51.568;4.656;2022-07-23T13:04:11;25.50;51.35
68257;DHT22;55069;51.568;4.656;2022-07-23T13:06:39;25.75;49.97
68257;DHT22;55069;51.568;4.656;2022-07-23T13:09:07;26.06;50.28
68257;DHT22;55069;51.568;4.656;2022-07-23T13:11:33;26.39;51.46
68257;DHT22;55069;51.568;4.656;2022-07-23T13:14:00;26.50;47.55
68257;DHT22;55069;51.568;4.656;2022-07-23T13:16:29;26.64;48.02
68257;DHT22;55069;51.568;4.656;2022-07-23T13:18:56;26.64;47.77
68257;DHT22;55069;51.568;4.656;2022-07-23T13:21:22;26.28;47.98
68257;DHT22;55069;51.568;4.656;2022-07-23T13:23:48;26.11;48.99
68257;DHT22;55069;51.568;4.656;2022-07-23T13:26:14;26.24;49.09
68257;DHT22;55069;51.568;4.656;2022-07-23T13:28:39;26.45;47.00
68257;DHT22;55069;51.568;4.656;2022-07-23T13:31:05;26.83;47.81
68257;DHT22;55069;51.568;4.656;2022-07-23T13:33:30;26.60;46.94
68257;DHT22;55069;51.568;4.656;2022-07-23T13:35:56;26.39;46.52
68257;DHT22;55069;51.568;4.656;2022-07-23T13:38:22;26.36;48.47
68257;DHT22;55069;51.568;4.656;2022-07-23T13:40:49;26.22;47.88
68257;DHT22;55069;51.568;4.656;2022-07-23T13:43:17;26.69;45.96
68257;DHT22;55069;51.568;4.656;2022-07-23T13:45:43;27.06;47.62
68257;DHT22;55069;51.568;4.656;2022-07-23T13:48:10;27.28;44.35
68257;DHT22;55069;51.568;4.656;2022-07-23T13:50:36;27.20;45.89
68257;DHT22;55069;51.568;4.656;2022-07-23T13:53:04;27.46;47.56
68257;DHT22;55069;51.568;4.656;2022-07-23T13:55:31;28.16;46.58
68257;DHT22;55069;51.568;4.656;2022-07-23T13:57:56;28.16;46.12
68257;DHT22;55069;51.568;4.656;2022-07-23T14:00:22;28.57;44.05
68257;DHT22;55069;51.568;4.656;2022-07-23T14:02:47;28.82;43.87
68257;DHT22;55069;51.568;4.656;2022-07-23T14:05:13;28.88;45.72
68257;DHT22;55069;51.568;4.656;2022-07-23T14:07:39;27.74;44.45
68257;DHT22;55069;51.568;4.656;2022-07-23T14:10:06;27.07;44.31
68257;DHT22;55069;51.568;4.656;2022-07-23T14:12:32;27.48;46.17
68257;DHT22;55069;51.568;4.656;2022-07-23T14:14:58;27.67;44.59
68257;DHT22;55069;51.568;4.656;2022-07-23T14:17:23;27.99;43.97
68257;DHT22;55069;51.568;4.656;2022-07-23T14:19:49;28.18;44.05
68257;DHT22;55069;51.568;4.656;2022-07-23T14:22:15;28.21;42.46
68257;DHT22;55069;51.568;4.656;2022-07-23T14:24:40;28.16;42.44
68257;DHT22;55069;51.568;4.656;2022-07-23T14:27:06;28.22;42.22
68257;DHT22;55069;51.568;4.656;2022-07-23T14:29:32;28.47;43.41
68257;DHT22;55069;51.568;4.656;2022-07-23T14:31:58;28.82;44.08
68257;DHT22;55069;51.568;4.656;2022-07-23T14:34:24;28.96;41.53
68257;DHT22;55069;51.568;4.656;2022-07-23T14:36:51;28.82;41.87
68257;DHT22;55069;51.568;4.656;2022-07-23T14:39:16;29.09;42.51
68257;DHT22;55069;51.568;4.656;2022-07-23T14:41:42;28.92;41.51
68257;DHT22;55069;51.568;4.656;2022-07-23T14:44:07;28.96;43.18
68257;DHT22;55069;51.568;4.656;2022-07-23T14:46:33;27.92;43.32
68257;DHT22;55069;51.568;4.656;2022-07-23T14:48:58;28.40;43.53
68257;DHT22;55069;51.568;4.656;2022-07-23T14:51:24;28.49;42.61
68257;DHT22;55069;51.568;4.656;2022-07-23T14:53:50;28.40;42.24
68257;DHT22;55069;51.568;4.656;2022-07-23T14:56:15;28.51;40.78
68257;DHT22;55069;51.568;4.656;2022-07-23T14:58:41;28.67;42.90
68257;DHT22;55069;51.568;4.656;2022-07-23T15:01:07;28.75;41.44
68257;DHT22;55069;51.568;4.656;2022-07-23T15:03:33;28.88;42.67
68257;DHT22;55069;51.568;4.656;2022-07-23T15:05:59;28.38;42.46
68257;DHT22;55069;51.568;4.656;2022-07-23T15:08:24;28.78;43.19
68257;DHT22;55069;51.568;4.656;2022-07-23T15:10:50;28.76;44.41
68257;DHT22;55069;51.568;4.656;2022-07-23T15:13:16;28.83;43.64
68257;DHT22;55069;51.568;4.656;2022-07-23T15:15:42;28.68;44.05
68257;DHT22;55069;51.568;4.656;2022-07-23T15:18:07;28.86;42.67
68257;DHT22;55069;51.568;4.656;2022-07-23T15:20:33;28.74;43.53
68257;DHT22;55069;51.568;4.656;2022-07-23T15:22:58;28.37;41.28
68257;DHT22;55069;51.568;4.656;2022-07-23T15:25:24;27.86;42.11
68257;DHT22;55069;51.568;4.656;2022-07-23T15:27:50;28.14;43.87
68257;DHT22;55069;51.568;4.656;2022-07-23T15:30:15;27.72;43.33
68257;DHT22;55069;51.568;4.656;2022-07-23T15:32:41;27.92;44.36
68257;DHT22;55069;51.568;4.656;2022-07-23T15:35:07;28.31;45.00
68257;DHT22;55069;51.568;4.656;2022-07-23T15:37:34;28.64;45.71
68257;DHT22;55069;51.568;4.656;2022-07-23T15:39:59;28.64;41.86
68257;DHT22;55069;51.568;4.656;2022-07-23T15:42:25;28.64;43.14
68257;DHT22;55069;51.568;4.656;2022-07-23T15:44:50;29.09;43.98
68257;DHT22;55069;51.568;4.656;2022-07-23T15:47:17;29.80;42.59
68257;DHT22;55069;51.568;4.656;2022-07-23T15:49:44;29.81;40.20
68257;DHT22;55069;51.568;4.656;2022-07-23T15:52:09;30.06;42.23
68257;DHT22;55069;51.568;4.656;2022-07-23T15:54:36;30.12;42.42
68257;DHT22;55069;51.568;4.656;2022-07-23T15:57:02;30.44;41.75
68257;DHT22;55069;51.568;4.656;2022-07-23T15:59:28;30.52;38.77
68257;DHT22;55069;51.568;4.656;2022-07-23T16:01:54;30.74;38.64
68257;DHT22;55069;51.568;4.656;2022-07-23T16:04:19;31.18;40.34
68257;DHT22;55069;51.568;4.656;2022-07-23T16:06:45;31.39;39.81
68257;DHT22;55069;51.568;4.656;2022-07-23T16:09:11;31.07;38.33
68257;DHT22;55069;51.568;4.656;2022-07-23T16:11:36;30.95;37.27
68257;DHT22;55069;51.568;4.656;2022-07-23T16:14:02;30.83;37.85
68257;DHT22;55069;51.568;4.656;2022-07-23T16:16:27;31.58;40.21
68257;DHT22;55069;51.568;4.656;2022-07-23T16:18:54;31.76;37.40
68257;DHT22;55069;51.568;4.656;2022-07-23T16:21:20;31.43;36.95
68257;DHT22;55069;51.568;4.656;2022-07-23T16:23:45;31.10;36.74
68257;DHT22;55069;51.568;4.656;2022-07-23T16:26:12;30.41;37.23
68257;DHT22;55069;51.568;4.656;2022-07-23T16:28:39;31.24;38.40
68257;DHT22;55069;51.568;4.656;2022-07-23T16:31:04;31.67;35.98